sensor_id;sensor_type;location;lat;lon;timestamp;pressure;altitude;pressure_sealevel;temperature;humidity
9415;BME280;4746;35.664;139.738;2023-02-20T00:01:51;99821.13;;;13.68;29.50
9415;BME280;4746;35.664;139.738;2023-02-20T00:04:20;99813.41;;;13.70;29.66
9415;BME280;4746;35.664;139.738;2023-02-20T00:06:47;99816.03;;;13.65;29.27
9415;BME280;4746;35.664;139.738;2023-02-20T00:09:15;99817.72;;;13.65;28.95
9415;BME280;4746;35.664;139.738;2023-02-20T00:11:42;99834.91;;;13.64;29.04
9415;BME280;4746;35.664;139.738;2023-02-20T00:14:10;99823.75;;;13.62;29.58
9415;BME280;4746;35.664;139.738;2023-02-20T00:16:38;99840.84;;;13.69;29.36
9415;BME280;4746;35.664;139.738;2023-02-20T00:19:08;99823.56;;;13.82;29.54
9415;BME280;4746;35.664;139.738;2023-02-20T00:21:35;99831.94;;;13.95;29.46
9415;BME280;4746;35.664;139.738;2023-02-20T00:24:03;99833.53;;;14.07;29.23
9415;BME280;4746;35.664;139.738;2023-02-20T00:26:30;99831.72;;;14.16;29.25
9415;BME280;4746;35.664;139.738;2023-02-20T00:28:58;99834.03;;;14.34;28.72
9415;BME280;4746;35.664;139.738;2023-02-20T00:31:25;99820.16;;;14.41;28.39
9415;BME280;4746;35.664;139.738;2023-02-20T00:33:54;99807.28;;;14.43;28.43
9415;BME280;4746;35.664;139.738;2023-02-20T00:36:22;99823.47;;;14.51;28.18
9415;BME280;4746;35.664;139.738;2023-02-20T00:38:49;99817.31;;;14.60;28.21
9415;BME280;4746;35.664;139.738;2023-02-20T00:41:17;99837.72;;;14.74;27.77
9415;BME280;4746;35.664;139.738;2023-02-20T00:43:44;99820.38;;;14.82;28.09
9415;BME280;4746;35.664;139.738;2023-02-20T00:46:13;99812.47;;;14.92;27.57
9415;BME280;4746;35.664;139.738;2023-02-20T00:48:41;99824.41;;;14.99;27.37
9415;BME280;4746;35.664;139.738;2023-02-20T00:51:09;99806.16;;;15.08;27.79
9415;BME280;4746;35.664;139.738;2023-02-20T00:53:38;99817.97;;;15.21;27.51
9415;BME280;4746;35.664;139.738;2023-02-20T00:56:06;99837.53;;;15.35;27.76
9415;BME280;4746;35.664;139.738;2023-02-20T00:58:34;99805.56;;;15.42;26.98
9415;BME280;4746;35.664;139.738;2023-02-20T01:01:02;99821.00;;;15.44;27.03
9415;BME280;4746;35.664;139.738;2023-02-20T01:03:29;99826.91;;;15.52;27.21
9415;BME280;4746;35.664;139.738;2023-02-20T01:05:57;99837.00;;;15.64;26.75
9415;BME280;4746;35.664;139.738;2023-02-20T01:08:25;99813.59;;;15.71;26.43
9415;BME280;4746;35.664;139.738;2023-02-20T01:10:53;99804.75;;;15.83;26.30
9415;BME280;4746;35.664;139.738;2023-02-20T01:13:20;99796.09;;;15.84;25.78
9415;BME280;4746;35.664;139.738;2023-02-20T01:15:48;99786.72;;;15.80;25.91
9415;BME280;4746;35.664;139.738;2023-02-20T01:18:16;99811.69;;;15.81;26.60
9415;BME280;4746;35.664;139.738;2023-02-20T01:20:44;99816.00;;;15.79;26.30
9415;BME280;4746;35.664;139.738;2023-02-20T01:23:11;99814.50;;;15.69;26.22
9415;BME280;4746;35.664;139.738;2023-02-20T01:25:39;99816.25;;;15.67;26.30
9415;BME280;4746;35.664;139.738;2023-02-20T01:28:06;99807.63;;;15.68;26.34
9415;BME280;4746;35.664;139.738;2023-02-20T01:30:34;99806.72;;;15.70;26.34
9415;BME280;4746;35.664;139.738;2023-02-20T01:33:02;99807.63;;;15.68;26.04
9415;BME280;4746;35.664;139.738;2023-02-20T01:35:29;99812.16;;;15.57;26.18
9415;BME280;4746;35.664;139.738;2023-02-20T01:37:59;99815.69;;;15.53;26.46
9415;BME280;4746;35.664;139.738;2023-02-20T01:40:28;99811.28;;;15.58;26.55
9415;BME280;4746;35.664;139.738;2023-02-20T01:42:55;99791.31;;;15.67;26.71
9415;BME280;4746;35.664;139.738;2023-02-20T01:47:54;99799.47;;;15.87;26.09
9415;BME280;4746;35.664;139.738;2023-02-20T01:50:43;99800.09;;;15.99;26.20
9415;BME280;4746;35.664;139.738;2023-02-20T01:53:17;99793.06;;;16.04;25.87
9415;BME280;4746;35.664;139.738;2023-02-20T01:56:05;99794.56;;;16.14;25.25
9415;BME280;4746;35.664;139.738;2023-02-20T01:58:44;99781.66;;;16.14;25.85
9415;BME280;4746;35.664;139.738;2023-02-20T02:01:13;99775.69;;;16.12;25.64
9415;BME280;4746;35.664;139.738;2023-02-20T02:03:46;99798.88;;;16.15;25.52
9415;BME280;4746;35.664;139.738;2023-02-20T02:06:20;99798.81;;;16.17;25.65
9415;BME280;4746;35.664;139.738;2023-02-20T02:08:48;99806.44;;;16.24;25.72
9415;BME280;4746;35.664;139.738;2023-02-20T02:11:21;99800.25;;;16.33;25.54
9415;BME280;4746;35.664;139.738;2023-02-20T02:13:50;99797.59;;;16.34;25.37
9415;BME280;4746;35.664;139.738;2023-02-20T02:19:28;99793.44;;;16.64;25.68
9415;BME280;4746;35.664;139.738;2023-02-20T02:22:28;99782.94;;;16.71;25.25
9415;BME280;4746;35.664;139.738;2023-02-20T02:25:18;99775.16;;;16.71;25.24
9415;BME280;4746;35.664;139.738;2023-02-20T02:30:57;99771.53;;;16.78;24.87
9415;BME280;4746;35.664;139.738;2023-02-20T02:39:52;99767.69;;;16.94;24.92
9415;BME280;4746;35.664;139.738;2023-02-20T02:42:45;99742.19;;;17.11;25.04
9415;BME280;4746;35.664;139.738;2023-02-20T02:48:28;99726.03;;;17.35;24.71
9415;BME280;4746;35.664;139.738;2023-02-20T02:51:20;99723.81;;;17.51;24.81
9415;BME280;4746;35.664;139.738;2023-02-20T02:54:14;99723.00;;;17.78;24.57
9415;BME280;4746;35.664;139.738;2023-02-20T02:56:46;99726.94;;;17.91;24.28
9415;BME280;4746;35.664;139.738;2023-02-20T02:59:30;99703.03;;;18.09;24.06
9415;BME280;4746;35.664;139.738;2023-02-20T03:02:09;99694.75;;;18.25;23.81
9415;BME280;4746;35.664;139.738;2023-02-20T03:04:41;99694.06;;;18.46;24.16
9415;BME280;4746;35.664;139.738;2023-02-20T03:07:14;99688.59;;;18.80;23.94
9415;BME280;4746;35.664;139.738;2023-02-20T03:09:56;99669.09;;;19.17;23.76
9415;BME280;4746;35.664;139.738;2023-02-20T03:12:30;99674.56;;;19.55;23.34
9415;BME280;4746;35.664;139.738;2023-02-20T03:20:56;99665.50;;;20.30;22.64
9415;BME280;4746;35.664;139.738;2023-02-20T03:23:34;99653.66;;;20.63;22.71
9415;BME280;4746;35.664;139.738;2023-02-20T03:26:17;99640.16;;;20.95;22.36
9415;BME280;4746;35.664;139.738;2023-02-20T03:29:02;99642.19;;;21.27;21.71
9415;BME280;4746;35.664;139.738;2023-02-20T03:31:43;99633.16;;;21.34;21.51
9415;BME280;4746;35.664;139.738;2023-02-20T03:34:30;99627.94;;;21.54;21.64
9415;BME280;4746;35.664;139.738;2023-02-20T03:37:22;99612.41;;;21.69;21.42
9415;BME280;4746;35.664;139.738;2023-02-20T03:40:12;99608.81;;;21.71;21.27
9415;BME280;4746;35.664;139.738;2023-02-20T03:43:15;99604.09;;;21.79;20.97
9415;BME280;4746;35.664;139.738;2023-02-20T03:46:12;99604.13;;;21.78;21.04
9415;BME280;4746;35.664;139.738;2023-02-20T03:49:07;99603.84;;;21.84;21.07
9415;BME280;4746;35.664;139.738;2023-02-20T03:51:39;99598.59;;;22.02;20.48
9415;BME280;4746;35.664;139.738;2023-02-20T03:54:08;99595.44;;;22.31;20.71
9415;BME280;4746;35.664;139.738;2023-02-20T03:56:48;99585.31;;;22.74;20.42
9415;BME280;4746;35.664;139.738;2023-02-20T03:59:41;99579.03;;;23.10;20.67
9415;BME280;4746;35.664;139.738;2023-02-20T04:02:24;99579.56;;;23.32;20.09
9415;BME280;4746;35.664;139.738;2023-02-20T04:05:06;99571.47;;;23.52;20.00
9415;BME280;4746;35.664;139.738;2023-02-20T04:11:19;99557.38;;;24.15;19.88
9415;BME280;4746;35.664;139.738;2023-02-20T04:13:50;99549.22;;;24.35;19.45
9415;BME280;4746;35.664;139.738;2023-02-20T04:16:20;99554.81;;;25.00;18.42
9415;BME280;4746;35.664;139.738;2023-02-20T04:18:48;99559.88;;;25.71;18.04
9415;BME280;4746;35.664;139.738;2023-02-20T04:21:45;99546.88;;;26.59;17.77
9415;BME280;4746;35.664;139.738;2023-02-20T04:24:43;99554.41;;;27.26;17.47
9415;BME280;4746;35.664;139.738;2023-02-20T04:27:15;99536.03;;;27.61;17.02
9415;BME280;4746;35.664;139.738;2023-02-20T04:29:42;99541.47;;;28.05;16.32
9415;BME280;4746;35.664;139.738;2023-02-20T04:32:10;99536.69;;;28.33;16.12
9415;BME280;4746;35.664;139.738;2023-02-20T04:34:38;99542.06;;;28.66;15.76
9415;BME280;4746;35.664;139.738;2023-02-20T04:37:16;99545.81;;;28.96;15.66
9415;BME280;4746;35.664;139.738;2023-02-20T04:39:48;99537.03;;;28.96;15.23
9415;BME280;4746;35.664;139.738;2023-02-20T04:42:16;99543.38;;;28.72;15.75
9415;BME280;4746;35.664;139.738;2023-02-20T04:44:43;99538.41;;;28.56;16.04
9415;BME280;4746;35.664;139.738;2023-02-20T04:47:17;99539.59;;;29.72;14.93
9415;BME280;4746;35.664;139.738;2023-02-20T04:49:45;99531.53;;;32.04;13.90
9415;BME280;4746;35.664;139.738;2023-02-20T04:52:12;99533.38;;;34.12;12.00
9415;BME280;4746;35.664;139.738;2023-02-20T04:54:40;99544.63;;;35.50;11.95
9415;BME280;4746;35.664;139.738;2023-02-20T04:57:07;99537.75;;;36.60;11.33
9415;BME280;4746;35.664;139.738;2023-02-20T04:59:35;99523.72;;;37.36;10.93
9415;BME280;4746;35.664;139.738;2023-02-20T05:02:02;99523.22;;;37.93;10.85
9415;BME280;4746;35.664;139.738;2023-02-20T05:04:30;99528.88;;;38.43;10.71
9415;BME280;4746;35.664;139.738;2023-02-20T05:06:58;99528.50;;;38.83;10.54
9415;BME280;4746;35.664;139.738;2023-02-20T05:09:25;99517.97;;;39.24;10.16
9415;BME280;4746;35.664;139.738;2023-02-20T05:11:53;99519.56;;;39.69;9.33
9415;BME280;4746;35.664;139.738;2023-02-20T05:14:22;99513.91;;;40.20;9.06
9415;BME280;4746;35.664;139.738;2023-02-20T05:16:50;99512.81;;;40.62;9.07
9415;BME280;4746;35.664;139.738;2023-02-20T05:19:18;99517.38;;;40.89;8.83
9415;BME280;4746;35.664;139.738;2023-02-20T05:21:46;99526.28;;;41.23;8.47
9415;BME280;4746;35.664;139.738;2023-02-20T05:24:32;99531.25;;;41.67;8.32
9415;BME280;4746;35.664;139.738;2023-02-20T05:27:00;99538.75;;;41.78;8.36
9415;BME280;4746;35.664;139.738;2023-02-20T05:29:27;99526.38;;;42.02;8.10
9415;BME280;4746;35.664;139.738;2023-02-20T05:31:55;99527.66;;;42.19;8.05
9415;BME280;4746;35.664;139.738;2023-02-20T05:34:22;99518.06;;;41.97;8.08
9415;BME280;4746;35.664;139.738;2023-02-20T05:36:52;99516.03;;;41.99;7.98
9415;BME280;4746;35.664;139.738;2023-02-20T05:39:23;99513.13;;;42.14;8.16
9415;BME280;4746;35.664;139.738;2023-02-20T05:41:50;99520.16;;;41.96;8.80
9415;BME280;4746;35.664;139.738;2023-02-20T05:44:18;99516.41;;;41.96;7.99
9415;BME280;4746;35.664;139.738;2023-02-20T05:46:45;99521.41;;;41.99;8.03
9415;BME280;4746;35.664;139.738;2023-02-20T05:49:15;99528.47;;;42.26;7.97
9415;BME280;4746;35.664;139.738;2023-02-20T05:51:43;99524.97;;;42.19;7.92
9415;BME280;4746;35.664;139.738;2023-02-20T05:54:10;99523.09;;;42.13;7.84
9415;BME280;4746;35.664;139.738;2023-02-20T05:56:43;99517.25;;;42.03;7.97
9415;BME280;4746;35.664;139.738;2023-02-20T05:59:12;99522.47;;;42.11;7.99
9415;BME280;4746;35.664;139.738;2023-02-20T06:01:39;99522.25;;;42.13;7.77
9415;BME280;4746;35.664;139.738;2023-02-20T06:04:08;99524.72;;;42.01;8.17
9415;BME280;4746;35.664;139.738;2023-02-20T06:06:39;99523.84;;;41.88;8.09
9415;BME280;4746;35.664;139.738;2023-02-20T06:09:10;99527.19;;;41.96;8.32
9415;BME280;4746;35.664;139.738;2023-02-20T06:11:39;99513.94;;;42.14;8.19
9415;BME280;4746;35.664;139.738;2023-02-20T06:14:07;99506.69;;;42.08;8.14
9415;BME280;4746;35.664;139.738;2023-02-20T06:16:35;99514.16;;;41.94;7.99
9415;BME280;4746;35.664;139.738;2023-02-20T06:19:02;99504.91;;;41.56;8.21
9415;BME280;4746;35.664;139.738;2023-02-20T06:21:31;99521.03;;;41.09;8.41
9415;BME280;4746;35.664;139.738;2023-02-20T06:24:02;99514.09;;;40.66;8.70
9415;BME280;4746;35.664;139.738;2023-02-20T06:26:29;99518.97;;;40.56;8.78
9415;BME280;4746;35.664;139.738;2023-02-20T06:28:57;99519.03;;;40.36;8.64
9415;BME280;4746;35.664;139.738;2023-02-20T06:31:27;99513.00;;;40.34;8.65
9415;BME280;4746;35.664;139.738;2023-02-20T06:33:55;99515.13;;;40.17;8.94
9415;BME280;4746;35.664;139.738;2023-02-20T06:36:31;99506.34;;;39.67;9.02
9415;BME280;4746;35.664;139.738;2023-02-20T06:38:59;99514.53;;;38.87;9.69
9415;BME280;4746;35.664;139.738;2023-02-20T06:41:27;99534.75;;;38.38;9.55
9415;BME280;4746;35.664;139.738;2023-02-20T06:43:55;99530.59;;;37.61;10.63
9415;BME280;4746;35.664;139.738;2023-02-20T06:46:23;99527.75;;;36.62;10.25
9415;BME280;4746;35.664;139.738;2023-02-20T06:48:56;99525.19;;;35.73;10.58
9415;BME280;4746;35.664;139.738;2023-02-20T06:51:32;99524.47;;;34.89;11.67
9415;BME280;4746;35.664;139.738;2023-02-20T06:54:02;99526.22;;;34.12;12.06
9415;BME280;4746;35.664;139.738;2023-02-20T06:56:33;99524.59;;;33.40;12.08
9415;BME280;4746;35.664;139.738;2023-02-20T06:59:04;99524.84;;;32.84;12.49
9415;BME280;4746;35.664;139.738;2023-02-20T07:01:40;99528.19;;;32.86;12.80
9415;BME280;4746;35.664;139.738;2023-02-20T07:04:17;99522.63;;;32.79;12.97
9415;BME280;4746;35.664;139.738;2023-02-20T07:06:45;99525.25;;;32.05;13.31
9415;BME280;4746;35.664;139.738;2023-02-20T07:09:14;99534.53;;;31.62;13.26
9415;BME280;4746;35.664;139.738;2023-02-20T07:11:43;99534.78;;;31.50;13.82
9415;BME280;4746;35.664;139.738;2023-02-20T07:14:10;99525.06;;;31.60;13.66
9415;BME280;4746;35.664;139.738;2023-02-20T07:16:42;99518.41;;;31.45;13.83
9415;BME280;4746;35.664;139.738;2023-02-20T07:19:10;99526.69;;;30.82;14.30
9415;BME280;4746;35.664;139.738;2023-02-20T07:21:38;99520.47;;;29.91;14.99
9415;BME280;4746;35.664;139.738;2023-02-20T07:24:06;99523.97;;;28.94;15.64
9415;BME280;4746;35.664;139.738;2023-02-20T07:26:34;99548.09;;;28.10;15.96
9415;BME280;4746;35.664;139.738;2023-02-20T07:29:07;99529.31;;;27.45;16.33
9415;BME280;4746;35.664;139.738;2023-02-20T07:31:34;99533.19;;;27.16;16.72
9415;BME280;4746;35.664;139.738;2023-02-20T07:34:02;99537.63;;;26.66;17.08
9415;BME280;4746;35.664;139.738;2023-02-20T07:36:29;99538.78;;;25.98;17.45
9415;BME280;4746;35.664;139.738;2023-02-20T07:38:59;99547.19;;;25.37;18.31
9415;BME280;4746;35.664;139.738;2023-02-20T07:41:29;99561.38;;;24.79;18.45
9415;BME280;4746;35.664;139.738;2023-02-20T07:44:03;99547.88;;;24.28;18.75
9415;BME280;4746;35.664;139.738;2023-02-20T07:46:31;99549.63;;;23.84;19.30
9415;BME280;4746;35.664;139.738;2023-02-20T07:49:04;99545.41;;;23.35;19.56
9415;BME280;4746;35.664;139.738;2023-02-20T07:51:32;99544.63;;;22.86;19.78
9415;BME280;4746;35.664;139.738;2023-02-20T07:54:00;99548.56;;;22.45;20.25
9415;BME280;4746;35.664;139.738;2023-02-20T07:56:29;99546.03;;;22.10;20.53
9415;BME280;4746;35.664;139.738;2023-02-20T07:58:57;99543.03;;;21.83;21.02
9415;BME280;4746;35.664;139.738;2023-02-20T08:01:24;99549.50;;;21.58;20.75
9415;BME280;4746;35.664;139.738;2023-02-20T08:03:52;99549.72;;;21.35;21.18
9415;BME280;4746;35.664;139.738;2023-02-20T08:06:20;99551.84;;;21.09;21.27
9415;BME280;4746;35.664;139.738;2023-02-20T08:08:49;99550.19;;;20.88;21.70
9415;BME280;4746;35.664;139.738;2023-02-20T08:11:20;99560.75;;;20.65;22.08
9415;BME280;4746;35.664;139.738;2023-02-20T08:13:49;99564.28;;;20.44;22.72
9415;BME280;4746;35.664;139.738;2023-02-20T08:16:17;99580.06;;;20.20;23.67
9415;BME280;4746;35.664;139.738;2023-02-20T08:18:45;99578.44;;;19.98;24.29
9415;BME280;4746;35.664;139.738;2023-02-20T08:21:12;99581.34;;;19.89;24.20
9415;BME280;4746;35.664;139.738;2023-02-20T08:23:40;99598.34;;;19.76;25.13
9415;BME280;4746;35.664;139.738;2023-02-20T08:26:07;99602.59;;;19.57;25.48
9415;BME280;4746;35.664;139.738;2023-02-20T08:28:35;99608.38;;;19.42;26.37
9415;BME280;4746;35.664;139.738;2023-02-20T08:31:03;99601.91;;;19.31;26.61
9415;BME280;4746;35.664;139.738;2023-02-20T08:33:31;99618.84;;;19.18;27.25
9415;BME280;4746;35.664;139.738;2023-02-20T08:35:58;99621.00;;;19.05;27.43
9415;BME280;4746;35.664;139.738;2023-02-20T08:38:37;99628.22;;;18.97;28.00
9415;BME280;4746;35.664;139.738;2023-02-20T08:41:10;99630.47;;;18.83;28.31
9415;BME280;4746;35.664;139.738;2023-02-20T08:43:47;99624.75;;;18.74;28.59
9415;BME280;4746;35.664;139.738;2023-02-20T08:46:51;99624.28;;;18.63;29.03
9415;BME280;4746;35.664;139.738;2023-02-20T08:49:19;99629.78;;;18.54;29.37
9415;BME280;4746;35.664;139.738;2023-02-20T08:51:51;99643.75;;;18.50;29.90
9415;BME280;4746;35.664;139.738;2023-02-20T08:54:23;99637.94;;;18.44;29.73
9415;BME280;4746;35.664;139.738;2023-02-20T08:56:50;99637.25;;;18.39;30.18
9415;BME280;4746;35.664;139.738;2023-02-20T08:59:18;99633.97;;;18.32;30.43
9415;BME280;4746;35.664;139.738;2023-02-20T09:01:45;99650.50;;;18.30;30.69
9415;BME280;4746;35.664;139.738;2023-02-20T09:04:13;99665.47;;;18.22;30.86
9415;BME280;4746;35.664;139.738;2023-02-20T09:06:42;99658.66;;;18.18;30.70
9415;BME280;4746;35.664;139.738;2023-02-20T09:09:13;99672.63;;;18.14;30.73
9415;BME280;4746;35.664;139.738;2023-02-20T09:11:40;99671.09;;;18.07;31.04
9415;BME280;4746;35.664;139.738;2023-02-20T09:14:12;99663.44;;;18.04;31.34
9415;BME280;4746;35.664;139.738;2023-02-20T09:16:40;99664.53;;;17.97;31.51
9415;BME280;4746;35.664;139.738;2023-02-20T09:19:10;99686.28;;;17.93;31.76
9415;BME280;4746;35.664;139.738;2023-02-20T09:21:39;99688.19;;;17.87;31.68
9415;BME280;4746;35.664;139.738;2023-02-20T09:24:07;99681.47;;;17.81;32.33
9415;BME280;4746;35.664;139.738;2023-02-20T09:26:35;99698.91;;;17.76;32.23
9415;BME280;4746;35.664;139.738;2023-02-20T09:29:04;99710.94;;;17.77;32.39
9415;BME280;4746;35.664;139.738;2023-02-20T09:31:31;99702.44;;;17.72;32.53
9415;BME280;4746;35.664;139.738;2023-02-20T09:34:03;99699.91;;;17.71;32.43
9415;BME280;4746;35.664;139.738;2023-02-20T09:36:30;99702.75;;;17.63;32.85
9415;BME280;4746;35.664;139.738;2023-02-20T09:38:58;99701.22;;;17.56;33.39
9415;BME280;4746;35.664;139.738;2023-02-20T09:50:46;99720.84;;;17.35;33.79
9415;BME280;4746;35.664;139.738;2023-02-20T09:53:37;99713.38;;;17.23;34.06
9415;BME280;4746;35.664;139.738;2023-02-20T09:56:16;99723.03;;;17.16;34.48
9415;BME280;4746;35.664;139.738;2023-02-20T09:59:02;99736.69;;;17.23;34.40
9415;BME280;4746;35.664;139.738;2023-02-20T10:01:34;99747.22;;;17.15;34.68
9415;BME280;4746;35.664;139.738;2023-02-20T10:04:16;99743.97;;;17.09;34.92
9415;BME280;4746;35.664;139.738;2023-02-20T10:06:50;99746.06;;;16.95;34.57
9415;BME280;4746;35.664;139.738;2023-02-20T10:09:20;99743.84;;;16.81;35.06
9415;BME280;4746;35.664;139.738;2023-02-20T10:14:47;99756.72;;;16.83;35.71
9415;BME280;4746;35.664;139.738;2023-02-20T10:20:22;99772.34;;;16.80;35.96
9415;BME280;4746;35.664;139.738;2023-02-20T10:25:53;99782.25;;;16.63;36.54
9415;BME280;4746;35.664;139.738;2023-02-20T10:28:23;99782.47;;;16.54;36.84
9415;BME280;4746;35.664;139.738;2023-02-20T10:31:25;99789.34;;;16.55;36.67
9415;BME280;4746;35.664;139.738;2023-02-20T10:34:22;99799.72;;;16.54;36.92
9415;BME280;4746;35.664;139.738;2023-02-20T10:37:15;99793.06;;;16.44;37.30
9415;BME280;4746;35.664;139.738;2023-02-20T10:40:22;99800.19;;;16.34;37.74
9415;BME280;4746;35.664;139.738;2023-02-20T10:43:18;99803.84;;;16.23;37.52
9415;BME280;4746;35.664;139.738;2023-02-20T10:46:07;99812.63;;;16.17;37.80
9415;BME280;4746;35.664;139.738;2023-02-20T10:48:39;99822.22;;;16.11;38.44
9415;BME280;4746;35.664;139.738;2023-02-20T10:51:44;99819.63;;;16.11;38.26
9415;BME280;4746;35.664;139.738;2023-02-20T10:54:37;99844.81;;;16.01;38.42
9415;BME280;4746;35.664;139.738;2023-02-20T11:00:26;99854.03;;;15.72;37.88
9415;BME280;4746;35.664;139.738;2023-02-20T11:03:11;99845.81;;;15.54;38.00
9415;BME280;4746;35.664;139.738;2023-02-20T11:05:50;99850.44;;;15.35;37.58
9415;BME280;4746;35.664;139.738;2023-02-20T11:08:18;99863.66;;;15.16;37.54
9415;BME280;4746;35.664;139.738;2023-02-20T11:11:01;99863.84;;;15.07;37.35
9415;BME280;4746;35.664;139.738;2023-02-20T11:13:32;99873.50;;;14.93;37.47
9415;BME280;4746;35.664;139.738;2023-02-20T11:16:00;99881.34;;;14.87;37.65
9415;BME280;4746;35.664;139.738;2023-02-20T11:18:39;99870.22;;;14.84;37.95
9415;BME280;4746;35.664;139.738;2023-02-20T11:21:06;99886.69;;;14.75;37.57
9415;BME280;4746;35.664;139.738;2023-02-20T11:23:41;99859.38;;;14.62;33.41
9415;BME280;4746;35.664;139.738;2023-02-20T11:26:29;99896.75;;;14.32;30.16
9415;BME280;4746;35.664;139.738;2023-02-20T11:29:12;99922.00;;;14.03;29.15
9415;BME280;4746;35.664;139.738;2023-02-20T11:31:44;99909.41;;;13.78;28.24
9415;BME280;4746;35.664;139.738;2023-02-20T11:34:24;99909.56;;;13.64;26.98
9415;BME280;4746;35.664;139.738;2023-02-20T11:37:05;99929.47;;;13.47;27.39
9415;BME280;4746;35.664;139.738;2023-02-20T11:39:34;99888.41;;;13.35;26.89
9415;BME280;4746;35.664;139.738;2023-02-20T11:42:17;99917.66;;;13.25;27.27
9415;BME280;4746;35.664;139.738;2023-02-20T11:48:09;99959.78;;;13.10;26.69
9415;BME280;4746;35.664;139.738;2023-02-20T11:50:42;99974.41;;;13.05;25.55
9415;BME280;4746;35.664;139.738;2023-02-20T11:53:31;99962.47;;;12.95;24.96
9415;BME280;4746;35.664;139.738;2023-02-20T11:56:16;99957.38;;;12.80;24.89
9415;BME280;4746;35.664;139.738;2023-02-20T11:58:46;99990.94;;;12.62;24.55
9415;BME280;4746;35.664;139.738;2023-02-20T12:01:35;99958.41;;;12.50;24.54
9415;BME280;4746;35.664;139.738;2023-02-20T12:04:22;99991.88;;;12.37;25.15
9415;BME280;4746;35.664;139.738;2023-02-20T12:06:50;99987.66;;;12.29;24.32
9415;BME280;4746;35.664;139.738;2023-02-20T12:09:25;100007.34;;;12.22;25.03
9415;BME280;4746;35.664;139.738;2023-02-20T12:11:56;100007.38;;;12.18;25.54
9415;BME280;4746;35.664;139.738;2023-02-20T12:14:24;99997.13;;;12.07;25.20
9415;BME280;4746;35.664;139.738;2023-02-20T12:17:40;99990.28;;;12.00;25.32
9415;BME280;4746;35.664;139.738;2023-02-20T12:20:29;100012.56;;;11.86;25.45
9415;BME280;4746;35.664;139.738;2023-02-20T12:23:38;99998.03;;;11.81;26.04
9415;BME280;4746;35.664;139.738;2023-02-20T12:26:21;99984.38;;;11.70;26.12
9415;BME280;4746;35.664;139.738;2023-02-20T12:29:14;99990.34;;;11.68;26.08
9415;BME280;4746;35.664;139.738;2023-02-20T12:35:29;99992.03;;;11.46;25.54
9415;BME280;4746;35.664;139.738;2023-02-20T12:39:13;100019.41;;;11.35;25.93
9415;BME280;4746;35.664;139.738;2023-02-20T12:44:42;100031.34;;;11.23;25.29
9415;BME280;4746;35.664;139.738;2023-02-20T12:47:40;100041.56;;;11.11;25.21
9415;BME280;4746;35.664;139.738;2023-02-20T12:53:19;100067.22;;;11.08;25.29
9415;BME280;4746;35.664;139.738;2023-02-20T12:56:14;100064.63;;;11.05;25.65
9415;BME280;4746;35.664;139.738;2023-02-20T13:01:21;100068.91;;;10.97;25.97
9415;BME280;4746;35.664;139.738;2023-02-20T13:09:28;100057.72;;;10.79;26.63
9415;BME280;4746;35.664;139.738;2023-02-20T13:12:15;100048.31;;;10.76;26.76
9415;BME280;4746;35.664;139.738;2023-02-20T13:15:20;100058.56;;;10.75;26.75
9415;BME280;4746;35.664;139.738;2023-02-20T13:20:52;100054.22;;;10.56;27.60
9415;BME280;4746;35.664;139.738;2023-02-20T13:25:51;100098.56;;;10.46;27.94
9415;BME280;4746;35.664;139.738;2023-02-20T13:28:41;100113.09;;;10.47;28.09
9415;BME280;4746;35.664;139.738;2023-02-20T13:36:45;100104.50;;;10.38;28.06
9415;BME280;4746;35.664;139.738;2023-02-20T13:39:37;100106.19;;;10.36;28.32
9415;BME280;4746;35.664;139.738;2023-02-20T13:42:28;100092.53;;;10.34;28.20
9415;BME280;4746;35.664;139.738;2023-02-20T13:44:56;100123.22;;;10.31;28.12
9415;BME280;4746;35.664;139.738;2023-02-20T13:47:35;100095.91;;;10.30;28.34
9415;BME280;4746;35.664;139.738;2023-02-20T13:50:29;100083.94;;;10.29;28.40
9415;BME280;4746;35.664;139.738;2023-02-20T13:52:59;100119.75;;;10.20;28.58
9415;BME280;4746;35.664;139.738;2023-02-20T13:55:28;100123.94;;;10.12;28.59
9415;BME280;4746;35.664;139.738;2023-02-20T13:58:09;100132.50;;;10.14;28.92
9415;BME280;4746;35.664;139.738;2023-02-20T14:00:53;100152.09;;;10.12;28.77
9415;BME280;4746;35.664;139.738;2023-02-20T14:03:31;100121.41;;;10.15;28.39
9415;BME280;4746;35.664;139.738;2023-02-20T14:06:08;100141.00;;;10.10;29.11
9415;BME280;4746;35.664;139.738;2023-02-20T14:08:42;100148.66;;;10.04;29.01
9415;BME280;4746;35.664;139.738;2023-02-20T14:11:36;100162.28;;;10.06;28.73
9415;BME280;4746;35.664;139.738;2023-02-20T14:14:33;100155.44;;;10.02;28.43
9415;BME280;4746;35.664;139.738;2023-02-20T14:17:21;100166.44;;;9.96;28.06
9415;BME280;4746;35.664;139.738;2023-02-20T14:20:03;100135.72;;;9.90;28.05
9415;BME280;4746;35.664;139.738;2023-02-20T14:22:34;100156.13;;;9.87;27.87
9415;BME280;4746;35.664;139.738;2023-02-20T14:27:40;100176.53;;;9.78;27.63
9415;BME280;4746;35.664;139.738;2023-02-20T14:30:19;100196.13;;;9.78;27.78
9415;BME280;4746;35.664;139.738;2023-02-20T14:32:51;100155.16;;;9.73;27.89
9415;BME280;4746;35.664;139.738;2023-02-20T14:41:58;100110.66;;;9.57;27.67
9415;BME280;4746;35.664;139.738;2023-02-20T14:44:28;100172.84;;;9.53;27.01
9415;BME280;4746;35.664;139.738;2023-02-20T14:47:11;100161.78;;;9.52;26.55
9415;BME280;4746;35.664;139.738;2023-02-20T14:49:40;100171.06;;;9.43;26.45
9415;BME280;4746;35.664;139.738;2023-02-20T14:52:22;100204.22;;;9.38;26.51
9415;BME280;4746;35.664;139.738;2023-02-20T14:55:03;100154.75;;;9.33;26.39
9415;BME280;4746;35.664;139.738;2023-02-20T14:57:33;100175.97;;;9.28;26.04
9415;BME280;4746;35.664;139.738;2023-02-20T15:00:31;100217.75;;;9.28;26.10
9415;BME280;4746;35.664;139.738;2023-02-20T15:02:59;100240.66;;;9.21;25.99
9415;BME280;4746;35.664;139.738;2023-02-20T15:05:31;100215.97;;;9.21;26.33
9415;BME280;4746;35.664;139.738;2023-02-20T15:08:20;100245.81;;;9.22;26.42
9415;BME280;4746;35.664;139.738;2023-02-20T15:10:54;100164.78;;;9.15;26.80